Stella Ada — 9V9082 — position and weather

sailwx.info

Track history (hours):
 
Tides and Currents Weather Stations Pressure Air Temp Water Temp Dewpoint Dewpoint Depression Visibility Wind Speed Wind Dir Waves Ship Positions

Stella Ada

Last reported at 2017-May-18 21:42 UTC. Time now 2017-May-23 03:15 UTC.
Position N 30°18' E 123°35'.

Length 296 m; draft 8.9 m.

Type: Cargo ship. MMSI: 566089000.

Date/timePositionNaut miles runAvg speedWind from/ knotsBaromVisibWave heightAir tempDewpointWater temp
2017-May-18 21:42N 30°18' E 123°35'2511.4
2017-May-18 19:33N 30°42' E 123°29'111.6
2017-May-18 19:27N 30°43' E 123°28'611.9
2017-May-18 18:55N 30°47' E 123°23'1111.8
2017-May-18 18:00N 30°55' E 123°15'611.6
2017-May-18 17:28N 31°01' E 123°11'511.3
2017-May-18 17:00N 31°04' E 123°06'612.4
2017-May-18 16:30N 31°04' E 122°59'612.2
2017-May-18 16:00N 31°05' E 122°52'612.1
2017-May-18 15:30N 31°05' E 122°45'612.1
2017-May-18 14:59N 31°05' E 122°38'612.2
2017-May-18 14:30N 31°05' E 122°31'1010.0
2017-May-18 13:30N 31°06' E 122°19'611.6
2017-May-18 13:00N 31°09' E 122°13'611.2
2017-May-18 12:30N 31°12' E 122°08'5 9.5
2017-May-18 12:00N 31°14' E 122°03'510.4
2017-May-18 11:30N 31°15' E 121°57'713.9
2017-May-18 11:01N 31°17' E 121°49'612.6
2017-May-18 10:30N 31°19' E 121°42'611.7
2017-May-18 10:00N 31°22' E 121°37'611.0
2017-May-18 09:30N 31°25' E 121°31'3 6.1
2017-May-18 09:01N 31°27' E 121°28'4 7.2
2017-May-18 08:31N 31°30' E 121°25'510.6
2017-May-18 08:00N 31°33' E 121°20'612.0
2017-May-18 07:30N 31°37' E 121°16'611.4
2017-May-18 07:00N 31°41' E 121°10'5 9.8
2017-May-18 06:30N 31°44' E 121°06'714.1
2017-May-18 06:00N 31°47' E 120°58'14 1.1
2017-May-17 17:52N 31°59' E 120°51'0 0.0
2017-May-17 17:25N 31°59' E 120°51'0 0.0
2017-May-16 23:07N 31°59' E 120°51'0 0.0
2017-May-16 22:43N 31°59' E 120°51'0 0.0
2017-May-16 22:25N 31°59' E 120°51'0 0.0
2017-May-16 21:46N 31°59' E 120°51'0 0.0
2017-May-16 21:19N 31°59' E 120°51'0 0.0
2017-May-16 20:49N 31°59' E 120°51'0 0.0
2017-May-16 20:19N 31°59' E 120°51'13 1.3
2017-May-16 10:23N 31°47' E 120°57'511.8
2017-May-16 10:00N 31°46' E 121°02'612.8
2017-May-16 09:30N 31°42' E 121°08'713.8
2017-May-16 09:00N 31°38' E 121°15'713.6
2017-May-16 08:30N 31°33' E 121°20'612.2
2017-May-16 08:00N 31°30' E 121°26'5 9.6
2017-May-16 07:30N 31°26' E 121°29'4 8.4
2017-May-16 07:00N 31°24' E 121°34'5 9.6
2017-May-16 06:30N 31°22' E 121°39'510.8
2017-May-16 06:00N 31°19' E 121°44'5 9.9
2017-May-16 05:30N 31°17' E 121°49'510.1
2017-May-16 05:00N 31°16' E 121°55'611.3
2017-May-16 04:30N 31°15' E 122°02'510.5
2017-May-16 04:00N 31°13' E 122°07'510.3
2017-May-16 03:30N 31°10' E 122°12'5 9.0
2017-May-16 03:00N 31°07' E 122°17'4 7.5
2017-May-16 02:30N 31°06' E 122°21'4 8.4
2017-May-16 02:00N 31°06' E 122°26'4 7.5
2017-May-16 01:30N 31°07' E 122°30'4 7.1
2017-May-16 01:00N 31°07' E 122°34'4 8.1
2017-May-16 00:30N 31°07' E 122°39'4 7.2
2017-May-16 00:00N 31°07' E 122°43'3 5.4
2017-May-15 23:30N 31°09' E 122°45'0 0.7
2017-May-15 22:58N 31°10' E 122°45'0 0.0
2017-May-15 22:28N 31°10' E 122°45'0 0.1
2017-May-15 21:52N 31°10' E 122°45'0 0.0
2017-May-15 21:28N 31°10' E 122°45'0 0.1
2017-May-15 20:58N 31°10' E 122°45'0 0.1
2017-May-15 20:28N 31°10' E 122°45'0 0.1
2017-May-15 19:58N 31°10' E 122°45'0 0.1
2017-May-15 19:25N 31°10' E 122°45'0 0.1
2017-May-15 18:58N 31°10' E 122°45'0 0.1
2017-May-15 18:19N 31°10' E 122°45'0 0.2
2017-May-15 17:58N 31°10' E 122°45'0 0.1
2017-May-15 17:28N 31°10' E 122°45'0 0.1
2017-May-15 16:58N 31°10' E 122°45'0 0.0
2017-May-15 16:28N 31°10' E 122°45'0 0.1
2017-May-15 15:58N 31°10' E 122°45'0 0.1
2017-May-15 15:22N 31°10' E 122°45'0 0.1
2017-May-15 14:55N 31°10' E 122°45'0 0.1
2017-May-15 13:55N 31°09' E 122°45'0 0.3
2017-May-15 13:25N 31°09' E 122°45'0 0.1
2017-May-15 12:49N 31°09' E 122°45'0 0.1
2017-May-15 12:28N 31°09' E 122°45'0 0.1
2017-May-15 11:58N 31°09' E 122°45'0 0.0
2017-May-15 11:22N 31°09' E 122°45'0 0.0
2017-May-15 10:55N 31°09' E 122°45'0 0.1
2017-May-15 10:28N 31°09' E 122°45'0 0.1
2017-May-15 09:58N 31°10' E 122°45'1 2.0
2017-May-15 09:27N 31°10' E 122°46'3 8.0
2017-May-15 09:00N 31°13' E 122°48'611.9
2017-May-15 08:30N 31°17' E 122°54'611.8
2017-May-15 08:00N 31°20' E 122°60'611.5
2017-May-15 07:30N 31°23' E 123°06'611.1
2017-May-15 07:00N 31°26' E 123°11'510.5
2017-May-15 06:30N 31°31' E 123°13'611.4
2017-May-15 05:57N 31°37' E 123°13'  
Track history (hours):
 
Tides and Currents Weather Stations Pressure Air Temp Water Temp Dewpoint Dewpoint Depression Visibility Wind Speed Wind Dir Waves Ship Positions

Stella Ada

Last reported at 2017-May-18 21:42 UTC. Time now 2017-May-23 03:15 UTC.
Position N 30°18' E 123°35'.

Length 296 m; draft 8.9 m.

Type: Cargo ship. MMSI: 566089000.

Date/timePositionNaut miles runAvg speedWind from/ knotsBaromVisibWave heightAir tempDewpointWater temp
2017-May-18 21:42N 30°18' E 123°35'2511.4
2017-May-18 19:33N 30°42' E 123°29'111.6
2017-May-18 19:27N 30°43' E 123°28'611.9
2017-May-18 18:55N 30°47' E 123°23'1111.8
2017-May-18 18:00N 30°55' E 123°15'611.6
2017-May-18 17:28N 31°01' E 123°11'511.3
2017-May-18 17:00N 31°04' E 123°06'612.4
2017-May-18 16:30N 31°04' E 122°59'612.2
2017-May-18 16:00N 31°05' E 122°52'612.1
2017-May-18 15:30N 31°05' E 122°45'612.1
2017-May-18 14:59N 31°05' E 122°38'612.2
2017-May-18 14:30N 31°05' E 122°31'1010.0
2017-May-18 13:30N 31°06' E 122°19'611.6
2017-May-18 13:00N 31°09' E 122°13'611.2
2017-May-18 12:30N 31°12' E 122°08'5 9.5
2017-May-18 12:00N 31°14' E 122°03'510.4
2017-May-18 11:30N 31°15' E 121°57'713.9
2017-May-18 11:01N 31°17' E 121°49'612.6
2017-May-18 10:30N 31°19' E 121°42'611.7
2017-May-18 10:00N 31°22' E 121°37'611.0
2017-May-18 09:30N 31°25' E 121°31'3 6.1
2017-May-18 09:01N 31°27' E 121°28'4 7.2
2017-May-18 08:31N 31°30' E 121°25'510.6
2017-May-18 08:00N 31°33' E 121°20'612.0
2017-May-18 07:30N 31°37' E 121°16'611.4
2017-May-18 07:00N 31°41' E 121°10'5 9.8
2017-May-18 06:30N 31°44' E 121°06'714.1
2017-May-18 06:00N 31°47' E 120°58'14 1.1
2017-May-17 17:52N 31°59' E 120°51'0 0.0
2017-May-17 17:25N 31°59' E 120°51'0 0.0
2017-May-16 23:07N 31°59' E 120°51'0 0.0
2017-May-16 22:43N 31°59' E 120°51'0 0.0
2017-May-16 22:25N 31°59' E 120°51'0 0.0
2017-May-16 21:46N 31°59' E 120°51'0 0.0
2017-May-16 21:19N 31°59' E 120°51'0 0.0
2017-May-16 20:49N 31°59' E 120°51'0 0.0
2017-May-16 20:19N 31°59' E 120°51'13 1.3
2017-May-16 10:23N 31°47' E 120°57'511.8
2017-May-16 10:00N 31°46' E 121°02'612.8
2017-May-16 09:30N 31°42' E 121°08'713.8
2017-May-16 09:00N 31°38' E 121°15'713.6
2017-May-16 08:30N 31°33' E 121°20'612.2
2017-May-16 08:00N 31°30' E 121°26'5 9.6
2017-May-16 07:30N 31°26' E 121°29'4 8.4
2017-May-16 07:00N 31°24' E 121°34'5 9.6
2017-May-16 06:30N 31°22' E 121°39'510.8
2017-May-16 06:00N 31°19' E 121°44'5 9.9
2017-May-16 05:30N 31°17' E 121°49'510.1
2017-May-16 05:00N 31°16' E 121°55'611.3
2017-May-16 04:30N 31°15' E 122°02'510.5
2017-May-16 04:00N 31°13' E 122°07'510.3
2017-May-16 03:30N 31°10' E 122°12'5 9.0
2017-May-16 03:00N 31°07' E 122°17'4 7.5
2017-May-16 02:30N 31°06' E 122°21'4 8.4
2017-May-16 02:00N 31°06' E 122°26'4 7.5
2017-May-16 01:30N 31°07' E 122°30'4 7.1
2017-May-16 01:00N 31°07' E 122°34'4 8.1
2017-May-16 00:30N 31°07' E 122°39'4 7.2
2017-May-16 00:00N 31°07' E 122°43'3 5.4
2017-May-15 23:30N 31°09' E 122°45'0 0.7
2017-May-15 22:58N 31°10' E 122°45'0 0.0
2017-May-15 22:28N 31°10' E 122°45'0 0.1
2017-May-15 21:52N 31°10' E 122°45'0 0.0
2017-May-15 21:28N 31°10' E 122°45'0 0.1
2017-May-15 20:58N 31°10' E 122°45'0 0.1
2017-May-15 20:28N 31°10' E 122°45'0 0.1
2017-May-15 19:58N 31°10' E 122°45'0 0.1
2017-May-15 19:25N 31°10' E 122°45'0 0.1
2017-May-15 18:58N 31°10' E 122°45'0 0.1
2017-May-15 18:19N 31°10' E 122°45'0 0.2
2017-May-15 17:58N 31°10' E 122°45'0 0.1
2017-May-15 17:28N 31°10' E 122°45'0 0.1
2017-May-15 16:58N 31°10' E 122°45'0 0.0
2017-May-15 16:28N 31°10' E 122°45'0 0.1
2017-May-15 15:58N 31°10' E 122°45'0 0.1
2017-May-15 15:22N 31°10' E 122°45'0 0.1
2017-May-15 14:55N 31°10' E 122°45'0 0.1
2017-May-15 13:55N 31°09' E 122°45'0 0.3
2017-May-15 13:25N 31°09' E 122°45'0 0.1
2017-May-15 12:49N 31°09' E 122°45'0 0.1
2017-May-15 12:28N 31°09' E 122°45'0 0.1
2017-May-15 11:58N 31°09' E 122°45'0 0.0
2017-May-15 11:22N 31°09' E 122°45'0 0.0
2017-May-15 10:55N 31°09' E 122°45'0 0.1
2017-May-15 10:28N 31°09' E 122°45'0 0.1
2017-May-15 09:58N 31°10' E 122°45'1 2.0
2017-May-15 09:27N 31°10' E 122°46'3 8.0
2017-May-15 09:00N 31°13' E 122°48'611.9
2017-May-15 08:30N 31°17' E 122°54'611.8
2017-May-15 08:00N 31°20' E 122°60'611.5
2017-May-15 07:30N 31°23' E 123°06'611.1
2017-May-15 07:00N 31°26' E 123°11'510.5
2017-May-15 06:30N 31°31' E 123°13'611.4
2017-May-15 05:57N 31°37' E 123°13'  

Dump ship's entire track history